Time;durP1;ratioP1;P1;durP2;ratioP2;P2;SDS_P1;SDS_P2;PMS_P1;PMS_P2;Temp;Humidity;BMP_temperature;BMP_pressure;BME280_temperature;BME280_humidity;BME280_pressure;Samples;Min_cycle;Max_cycle;Signal;HPM_P1;HPM_P2
2022/01/03 00:01:31;;;;;;;16.50;6.43;;;;;;;7.26;100.00;99931.25;5007311;28;19913;-76
2022/01/03 00:03:56;;;;;;;11.40;4.00;;;;;;;7.28;100.00;99926.63;5007004;28;20061;-76
2022/01/03 00:06:22;;;;;;;16.73;5.93;;;;;;;7.29;100.00;99928.28;5007698;28;20467;-76
2022/01/03 00:08:48;;;;;;;10.27;4.60;;;;;;;7.26;100.00;99927.75;5006733;28;20037;-76
2022/01/03 00:11:18;;;;;;;18.90;4.90;;;;;;;7.19;100.00;99928.41;5007282;28;20407;-75
2022/01/03 00:13:45;;;;;;;17.45;5.88;;;;;;;7.19;100.00;99931.06;5006991;28;20072;-75
2022/01/03 00:16:11;;;;;;;18.80;4.70;;;;;;;7.14;100.00;99919.25;5007328;28;20026;-75
2022/01/03 00:18:38;;;;;;;12.63;3.88;;;;;;;7.11;100.00;99920.41;5008281;28;20502;-76
2022/01/03 00:21:06;;;;;;;;;;;;;;;7.10;100.00;99924.06;5008847;28;20261;-74
2022/01/03 00:23:34;;;;;;;12.52;4.97;;;;;;;7.05;100.00;99918.41;5008010;28;19921;-75
2022/01/03 00:26:02;;;;;;;9.48;4.05;;;;;;;7.00;100.00;99920.72;5006860;28;20018;-75
2022/01/03 00:28:31;;;;;;;14.90;4.25;;;;;;;7.04;100.00;99932.66;5008136;28;20029;-75
2022/01/03 00:30:57;;;;;;;19.70;5.95;;;;;;;7.06;100.00;99929.84;5023613;28;20021;-76
2022/01/03 00:33:24;;;;;;;17.15;5.50;;;;;;;7.15;100.00;99942.16;5006820;28;20037;-75
2022/01/03 00:35:59;;;;;;;18.60;4.75;;;;;;;7.18;100.00;99947.97;5006526;28;20387;-76
2022/01/03 00:38:27;;;;;;;13.70;4.33;;;;;;;7.15;100.00;99944.81;5005933;28;20037;-76
2022/01/03 00:40:52;;;;;;;14.05;5.72;;;;;;;7.23;100.00;99946.66;5007695;28;20037;-75
2022/01/03 00:43:18;;;;;;;10.70;4.10;;;;;;;7.22;100.00;99940.53;5006906;28;20129;-76
2022/01/03 00:45:44;;;;;;;12.45;4.50;;;;;;;7.18;100.00;99926.72;5006586;28;20052;-75
2022/01/03 00:48:10;;;;;;;16.83;5.63;;;;;;;7.26;100.00;99938.38;5008249;28;20026;-75
2022/01/03 00:50:36;;;;;;;;;;;;;;;7.22;100.00;99937.06;5007137;28;20277;-75
2022/01/03 00:53:02;;;;;;;;;;;;;;;7.18;100.00;99937.34;5007610;28;19917;-77
2022/01/03 00:55:27;;;;;;;;;;;;;;;7.18;100.00;99934.69;5006904;28;19909;-75
2022/01/03 00:57:59;;;;;;;13.17;3.70;;;;;;;7.18;100.00;99926.72;5006649;28;19913;-76
2022/01/03 01:00:26;;;;;;;10.43;4.38;;;;;;;7.24;100.00;99930.59;5023116;28;20053;-75
2022/01/03 01:03:01;;;;;;;14.18;4.00;;;;;;;7.26;100.00;99931.25;5006463;28;20099;-75
2022/01/03 01:05:27;;;;;;;12.48;4.10;;;;;;;7.29;100.00;99927.44;5006420;28;20513;-76
2022/01/03 01:07:56;;;;;;;16.27;4.22;;;;;;;7.31;100.00;99920.97;5006281;28;20129;-76
2022/01/03 01:10:28;;;;;;;16.75;3.53;;;;;;;7.27;100.00;99918.81;5006433;28;20037;-76
2022/01/03 01:12:54;;;;;;;14.20;4.38;;;;;;;7.23;100.00;99912.16;5005511;28;20044;-76
2022/01/03 01:15:21;;;;;;;14.90;4.22;;;;;;;7.21;100.00;99908.81;5005137;28;20571;-75
2022/01/03 01:17:47;;;;;;;9.15;3.80;;;;;;;7.26;100.00;99909.16;5005323;28;20040;-76
2022/01/03 01:20:16;;;;;;;14.73;3.70;;;;;;;7.24;100.00;99908.53;5005502;28;20029;-76
2022/01/03 01:22:42;;;;;;;12.93;3.72;;;;;;;7.22;100.00;99906.00;5005470;28;20511;-76
2022/01/03 01:30:18;;;;;;;15.50;4.55;;;;;;;7.20;100.00;99902.69;5022225;28;20543;-76
2022/01/03 01:32:50;;;;;;;16.90;4.95;;;;;;;7.12;100.00;99895.53;5005812;28;20037;-76
2022/01/03 01:35:19;;;;;;;9.35;3.85;;;;;;;7.13;100.00;99907.81;5005148;28;20413;-75
2022/01/03 01:37:48;;;;;;;12.02;4.20;;;;;;;7.10;100.00;99905.47;5005164;28;20453;-76
2022/01/03 01:40:13;;;;;;;10.73;4.50;;;;;;;7.12;100.00;99903.50;5005249;28;20034;-75
2022/01/03 01:42:45;;;;;;;12.65;4.57;;;;;;;7.18;100.00;99913.47;5005493;28;20033;-76
2022/01/03 01:45:14;;;;;;;19.15;4.60;;;;;;;7.15;100.00;99911.13;4997748;28;20026;-76
2022/01/03 01:47:40;;;;;;;12.15;4.80;;;;;;;7.09;100.00;99905.63;5005167;28;20038;-76
2022/01/03 01:50:08;;;;;;;18.63;6.03;;;;;;;7.08;100.00;99904.81;5021329;28;20795;-76
2022/01/03 01:52:36;;;;;;;14.57;5.75;;;;;;;7.14;100.00;99922.75;5005297;28;20030;-77
2022/01/03 01:55:06;;;;;;;19.80;5.93;;;;;;;7.17;100.00;99921.59;4988317;28;20581;-75
2022/01/03 01:57:53;;;;;;;13.23;4.70;;;;;;;7.15;100.00;99924.41;5005184;28;20556;-76
2022/01/03 02:00:24;;;;;;;17.85;5.32;;;;;;;7.21;100.00;99922.94;5005306;28;20065;-76
2022/01/03 02:03:13;;;;;;;14.80;4.90;;;;;;;7.12;100.00;99911.47;5006482;28;20116;-75
2022/01/03 02:05:44;;;;;;;14.90;5.25;;;;;;;7.17;100.00;99919.78;5005050;28;20148;-76
2022/01/03 02:08:16;;;;;;;10.70;5.63;;;;;;;7.19;100.00;99922.28;5004777;28;20515;-76
2022/01/03 02:11:02;;;;;;;20.13;5.93;;;;;;;7.21;100.00;99924.75;5004827;28;20042;-76
2022/01/03 02:13:29;;;;;;;17.85;6.20;;;;;;;7.24;100.00;99943.03;5005182;28;20200;-76
2022/01/03 02:16:03;;;;;;;28.50;5.97;;;;;;;7.17;100.00;99945.50;5002401;28;20109;-76
2022/01/03 02:18:31;;;;;;;16.98;7.53;;;;;;;7.14;100.00;99944.00;5013864;28;20038;-76
2022/01/03 02:20:57;;;;;;;22.92;6.47;;;;;;;7.17;100.00;99964.91;5005877;28;20030;-76
2022/01/03 02:23:23;;;;;;;15.77;6.72;;;;;;;7.10;100.00;99950.59;4990760;28;20075;-76
2022/01/03 02:25:49;;;;;;;22.60;8.02;;;;;;;7.03;100.00;99952.22;4988410;28;20030;-77
2022/01/03 02:28:16;;;;;;;22.17;8.38;;;;;;;6.98;100.00;99949.22;5005426;28;20172;-77
2022/01/03 02:30:42;;;;;;;36.63;8.35;;;;;;;7.00;100.00;99965.84;5005470;28;20042;-76
2022/01/03 02:33:08;;;;;;;24.65;8.75;;;;;;;6.98;100.00;99970.47;5021484;28;20499;-76
2022/01/03 02:35:38;;;;;;;17.20;6.80;;;;;;;7.03;100.00;99981.44;5004785;28;20025;-77
2022/01/03 02:38:06;;;;;;;21.13;8.05;;;;;;;7.08;100.00;99983.59;5005691;28;20030;-77
2022/01/03 02:40:32;;;;;;;17.60;6.20;;;;;;;7.01;100.00;99988.72;5006036;28;20052;-77
2022/01/03 02:42:57;;;;;;;12.15;5.18;;;;;;;6.98;100.00;100004.97;5006392;28;20475;-76
2022/01/03 02:45:26;;;;;;;9.70;4.45;;;;;;;6.94;100.00;100008.91;5006146;28;20053;-78
2022/01/03 02:47:56;;;;;;;9.90;3.33;;;;;;;6.84;100.00;100016.97;5006592;28;20030;-76
2022/01/03 02:50:24;;;;;;;11.80;3.15;;;;;;;6.91;100.00;100019.84;5006459;28;20017;-77
2022/01/03 02:52:49;;;;;;;6.25;2.45;;;;;;;6.86;100.00;100012.34;5006909;28;20410;-77
2022/01/03 02:55:18;;;;;;;8.80;2.97;;;;;;;6.81;100.00;100017.28;5005846;28;20030;-76
2022/01/03 02:57:47;;;;;;;7.90;2.47;;;;;;;6.78;100.00;100025.56;5006062;28;20076;-77
2022/01/03 03:00:16;;;;;;;10.15;3.85;;;;;;;6.72;100.00;100021.72;5005975;28;20026;-76
2022/01/03 03:02:41;;;;;;;8.45;3.22;;;;;;;6.73;100.00;100028.66;5008444;28;20048;-77
2022/01/03 03:05:09;;;;;;;10.50;2.70;;;;;;;6.68;100.00;100019.53;5024965;28;20014;-76
2022/01/03 03:07:36;;;;;;;9.63;1.70;;;;;;;6.74;100.00;100027.69;5009538;28;20030;-76
2022/01/03 03:10:06;;;;;;;9.57;1.75;;;;;;;6.68;100.00;100025.66;5017753;28;20038;-77
2022/01/03 03:12:32;;;;;;;7.03;2.22;;;;;;;6.60;100.00;100020.28;5009819;28;20033;-76
2022/01/03 03:14:57;;;;;;;12.43;2.17;;;;;;;6.62;100.00;100009.53;5010442;28;20029;-76
2022/01/03 03:17:23;;;;;;;10.57;1.83;;;;;;;6.66;100.00;100034.75;5009586;28;20865;-76
2022/01/03 03:19:54;;;;;;;5.88;2.42;;;;;;;6.62;100.00;100025.44;5009839;28;20026;-75
2022/01/03 03:22:20;;;;;;;11.00;1.73;;;;;;;6.57;100.00;100028.56;5009118;28;20045;-76
2022/01/03 03:24:45;;;;;;;12.82;2.33;;;;;;;6.55;100.00;100031.38;5008731;28;20396;-75
2022/01/03 03:27:11;;;;;;;10.35;1.80;;;;;;;6.54;100.00;100036.81;5009901;28;20033;-76
2022/01/03 03:29:50;;;;;;;11.93;1.65;;;;;;;6.59;100.00;100036.38;5009597;28;20034;-76
2022/01/03 03:32:17;;;;;;;4.90;1.20;;;;;;;6.54;100.00;100037.66;5014532;28;20024;-77
2022/01/03 03:34:48;;;;;;;4.70;1.33;;;;;;;6.49;100.00;100036.47;5009459;28;20026;-76
2022/01/03 03:37:15;;;;;;;5.93;2.03;;;;;;;6.43;100.00;100023.81;5009565;28;20061;-76
2022/01/03 03:39:44;;;;;;;11.55;1.63;;;;;;;6.37;100.00;100016.44;5025976;28;20498;-76
2022/01/03 03:42:11;;;;;;;6.93;1.42;;;;;;;6.31;100.00;100018.72;5009292;28;20030;-75
2022/01/03 03:44:37;;;;;;;4.82;1.40;;;;;;;6.33;100.00;100027.38;5008527;28;20813;-76
2022/01/03 03:47:04;;;;;;;5.70;1.17;;;;;;;6.27;100.00;100016.53;5025038;28;20034;-75
2022/01/03 03:49:29;;;;;;;5.13;1.55;;;;;;;6.26;100.00;100018.38;5008081;28;20052;-76
2022/01/03 03:51:55;;;;;;;4.75;2.10;;;;;;;6.33;100.00;100043.28;5007464;28;20471;-76
2022/01/03 03:54:20;;;;;;;5.35;1.73;;;;;;;6.24;100.00;100030.94;5007070;28;20026;-75
2022/01/03 03:56:46;;;;;;;5.57;1.90;;;;;;;6.33;100.00;100037.97;5007364;28;20444;-75
2022/01/03 03:59:12;;;;;;;6.07;1.23;;;;;;;6.32;100.00;100031.03;5023682;28;20273;-75
2022/01/03 04:01:38;;;;;;;8.47;1.27;;;;;;;6.32;100.00;100041.63;5008154;28;20388;-76
2022/01/03 04:04:04;;;;;;;4.43;1.10;;;;;;;6.27;100.00;100030.63;5006836;28;20698;-76
2022/01/03 04:06:29;;;;;;;14.52;1.65;;;;;;;6.31;100.00;100039.94;5007194;28;20033;-76
2022/01/03 04:08:58;;;;;;;6.93;1.67;;;;;;;6.31;100.00;100039.94;5006555;28;20022;-76
2022/01/03 04:11:23;;;;;;;7.32;2.67;;;;;;;6.31;100.00;100033.81;5006657;28;20042;-76
2022/01/03 04:13:50;;;;;;;11.55;1.63;;;;;;;6.30;100.00;100043.59;5006099;28;20026;-75
2022/01/03 04:16:16;;;;;;;12.90;2.23;;;;;;;6.35;100.00;100045.78;5006774;28;20847;-76
2022/01/03 04:18:41;;;;;;;7.38;2.63;;;;;;;6.38;100.00;100039.34;5007373;28;20179;-75
2022/01/03 04:21:08;;;;;;;13.52;3.10;;;;;;;6.40;100.00;100042.69;5007705;28;20040;-76
2022/01/03 04:23:33;;;;;;;12.52;3.33;;;;;;;6.44;100.00;100042.22;5007638;28;20034;-76
2022/01/03 04:25:59;;;;;;;9.27;2.57;;;;;;;6.50;100.00;100032.81;5007303;28;20044;-75
2022/01/03 04:28:25;;;;;;;14.02;4.07;;;;;;;6.45;100.00;100037.75;5008069;28;20459;-76
2022/01/03 04:30:51;;;;;;;18.08;4.28;;;;;;;6.43;100.00;100023.81;5007536;28;20045;-76
2022/01/03 04:33:17;;;;;;;12.63;2.47;;;;;;;6.48;100.00;100024.16;4999093;28;20507;-76
2022/01/03 04:35:43;;;;;;;28.70;5.80;;;;;;;6.44;100.00;100028.09;5006497;28;20088;-75
2022/01/03 04:38:10;;;;;;;27.25;3.15;;;;;;;6.51;100.00;100032.66;5022905;28;20023;-76
2022/01/03 04:40:35;;;;;;;19.65;2.92;;;;;;;6.52;100.00;100030.84;5006249;28;20487;-75
2022/01/03 04:43:01;;;;;;;24.17;4.97;;;;;;;6.55;100.00;100030.53;5006116;28;20032;-76
2022/01/03 04:45:26;;;;;;;19.83;3.60;;;;;;;6.54;100.00;100015.59;5005784;28;20419;-75
2022/01/03 04:47:51;;;;;;;26.37;3.97;;;;;;;6.47;100.00;100019.88;4997921;28;20116;-75
2022/01/03 04:50:18;;;;;;;23.83;4.28;;;;;;;6.56;100.00;100013.63;5005962;28;20120;-76
2022/01/03 04:52:43;;;;;;;23.03;4.20;;;;;;;6.60;100.00;100019.44;5005847;28;20053;-75
2022/01/03 04:55:09;;;;;;;20.67;3.60;;;;;;;6.57;100.00;100012.63;5008100;28;20104;-76
2022/01/03 04:57:35;;;;;;;24.05;3.67;;;;;;;6.62;100.00;100020.97;5022475;28;20275;-75
2022/01/03 05:00:03;;;;;;;23.25;3.63;;;;;;;6.49;100.00;99989.56;5005819;28;20038;-75
2022/01/03 05:02:30;;;;;;;28.38;4.80;;;;;;;6.56;100.00;100003.03;5005982;28;20443;-76
2022/01/03 05:04:58;;;;;;;14.55;3.08;;;;;;;6.58;100.00;100003.72;5021913;28;20073;-75
2022/01/03 05:07:23;;;;;;;18.25;2.47;;;;;;;6.65;100.00;100003.91;5005655;28;20113;-75
2022/01/03 05:09:49;;;;;;;27.97;5.07;;;;;;;6.55;100.00;99986.28;5004448;28;20034;-75
2022/01/03 05:12:16;;;;;;;22.13;4.40;;;;;;;6.58;100.00;99992.25;5005596;28;20483;-76
2022/01/03 05:14:43;;;;;;;17.45;3.85;;;;;;;6.63;100.00;99984.69;5005231;28;20415;-75
2022/01/03 05:17:09;;;;;;;18.85;3.90;;;;;;;6.59;100.00;99989.44;5005455;28;20014;-76
2022/01/03 05:19:35;;;;;;;23.38;3.80;;;;;;;6.65;100.00;99980.03;5005385;28;20038;-75
2022/01/03 05:22:00;;;;;;;18.58;3.78;;;;;;;6.64;100.00;99976.56;5021710;28;20025;-77
2022/01/03 05:24:26;;;;;;;27.03;5.30;;;;;;;6.65;100.00;99982.69;5004319;28;20041;-74
2022/01/03 05:26:53;;;;;;;19.50;3.72;;;;;;;6.68;100.00;99977.91;5005533;28;20272;-76
2022/01/03 05:29:19;;;;;;;20.23;3.00;;;;;;;6.72;100.00;99979.28;5004722;28;20120;-76
2022/01/03 05:31:44;;;;;;;31.73;5.38;;;;;;;6.72;100.00;99978.44;5005512;28;20389;-76
2022/01/03 05:34:10;;;;;;;37.42;7.25;;;;;;;6.67;100.00;99967.44;5006408;28;20034;-76
2022/01/03 05:36:35;;;;;;;32.83;6.37;;;;;;;6.65;100.00;99972.94;5005513;28;20089;-75
2022/01/03 05:39:00;;;;;;;23.53;5.00;;;;;;;6.63;100.00;99977.56;5005865;28;20040;-76
2022/01/03 05:41:26;;;;;;;27.83;4.00;;;;;;;6.58;100.00;99976.34;5005646;28;20109;-75
2022/01/03 05:43:52;;;;;;;26.90;4.72;;;;;;;6.58;100.00;99986.94;5005849;28;20030;-75
2022/01/03 05:46:19;;;;;;;29.75;5.35;;;;;;;6.65;100.00;99998.59;5006698;28;20423;-75
2022/01/03 05:48:45;;;;;;;34.35;4.55;;;;;;;6.64;100.00;99995.13;5006415;28;20036;-75
2022/01/03 05:51:11;;;;;;;23.20;6.22;;;;;;;6.61;100.00;99998.09;5006349;28;20026;-75
2022/01/03 05:53:37;;;;;;;36.05;4.75;;;;;;;6.63;100.00;100004.06;5022500;28;20022;-75
2022/01/03 05:56:02;;;;;;;29.20;5.53;;;;;;;6.70;100.00;100005.13;5005895;28;20113;-75
2022/01/03 05:58:29;;;;;;;42.17;6.28;;;;;;;6.73;100.00;100012.75;5022404;28;20125;-75
2022/01/03 06:00:55;;;;;;;28.50;5.32;;;;;;;6.65;100.00;99999.44;5006834;28;20121;-75
2022/01/03 06:03:22;;;;;;;38.23;6.40;;;;;;;6.70;100.00;100010.44;5005509;28;20042;-75
2022/01/03 06:08:25;;;;;;;35.05;5.63;;;;;;;6.72;100.00;100000.50;5027097;28;20459;-75
2022/01/03 06:10:51;;;;;;;35.05;5.80;;;;;;;6.73;100.00;100004.78;5004822;28;20192;-75
2022/01/03 06:13:22;;;;;;;33.95;5.35;;;;;;;6.76;100.00;100012.44;5004420;28;20504;-75
2022/01/03 06:15:48;;;;;;;24.73;5.25;;;;;;;6.75;100.00;100000.16;5004373;28;20546;-75
2022/01/03 06:18:16;;;;;;;29.83;4.88;;;;;;;6.88;100.00;100002.44;4989116;28;20601;-75
2022/01/03 06:20:45;;;;;;;29.02;5.18;;;;;;;6.85;100.00;99997.41;5003643;28;20049;-76
2022/01/03 06:23:13;;;;;;;32.80;6.70;;;;;;;6.85;100.00;99976.19;5003326;28;20111;-75
2022/01/03 06:25:39;;;;;;;28.70;5.57;;;;;;;6.91;100.00;99980.88;5002830;28;20033;-76
2022/01/03 06:28:07;;;;;;;41.58;7.70;;;;;;;6.87;100.00;99973.38;5003115;28;20026;-76
2022/01/03 06:30:37;;;;;;;41.28;7.07;;;;;;;6.89;100.00;99960.78;5003524;28;20037;-76
2022/01/03 06:33:03;;;;;;;31.08;5.95;;;;;;;6.90;100.00;99959.78;4995426;28;20060;-75
2022/01/03 06:35:29;;;;;;;31.48;5.38;;;;;;;6.88;100.00;99956.47;4994922;28;20483;-76
2022/01/03 06:37:56;;;;;;;36.58;8.15;;;;;;;7.00;100.00;99954.34;5006720;28;20032;-76
2022/01/03 06:40:24;;;;;;;30.00;6.60;;;;;;;6.97;100.00;99966.13;5008328;28;20018;-77
2022/01/03 06:42:50;;;;;;;26.95;3.80;;;;;;;6.94;100.00;99950.53;5008298;28;20026;-76
2022/01/03 06:45:19;;;;;;;30.00;5.93;;;;;;;6.99;100.00;99948.22;4992138;28;20018;-76
2022/01/03 06:47:45;;;;;;;29.15;7.72;;;;;;;6.99;100.00;99945.56;5024413;28;20560;-76
2022/01/03 06:50:10;;;;;;;40.37;6.93;;;;;;;6.96;100.00;99937.94;5007788;28;20044;-75
2022/01/03 06:52:36;;;;;;;28.37;5.00;;;;;;;6.99;100.00;99937.59;5024152;28;20937;-74
2022/01/03 06:55:04;;;;;;;30.95;6.07;;;;;;;6.96;100.00;99944.06;5007800;28;20083;-76
2022/01/03 06:57:31;;;;;;;43.20;6.95;;;;;;;6.98;100.00;99935.97;5007977;28;20057;-75
2022/01/03 06:59:56;;;;;;;28.98;5.20;;;;;;;7.00;100.00;99941.94;5024337;28;20669;-74
2022/01/03 07:02:22;;;;;;;52.80;6.68;;;;;;;7.04;100.00;99943.25;5004336;28;20057;-75
2022/01/03 07:04:48;;;;;;;36.95;5.65;;;;;;;7.04;100.00;99930.00;5006003;28;20022;-75
2022/01/03 07:07:13;;;;;;;36.53;4.93;;;;;;;7.04;100.00;99918.56;5007930;28;20030;-76
2022/01/03 07:09:39;;;;;;;36.77;5.63;;;;;;;7.02;100.00;99933.81;5025841;22;20356;-80
2022/01/03 07:12:06;;;;;;;36.33;7.53;;;;;;;7.03;100.00;99932.84;5019259;28;20482;-79
2022/01/03 07:19:52;;;;;;;44.92;5.82;;;;;;;7.05;100.00;99933.50;5042122;28;20041;-79
2022/01/03 07:22:18;;;;;;;36.03;6.72;;;;;;;7.04;100.00;99943.25;5043031;28;20039;-80
2022/01/03 07:24:44;;;;;;;32.65;7.15;;;;;;;7.06;100.00;99943.94;5025078;28;20381;-79
2022/01/03 07:27:11;;;;;;;35.83;5.82;;;;;;;7.09;100.00;99943.63;5022883;28;20033;-79
2022/01/03 07:29:37;;;;;;;30.92;5.05;;;;;;;7.06;100.00;99962.53;5039610;28;20405;-80
2022/01/03 07:32:04;;;;;;;39.85;5.60;;;;;;;7.12;100.00;99956.59;5026395;28;20086;-80
2022/01/03 07:34:29;;;;;;;;;;;;;;;7.11;100.00;99959.41;5026799;28;20120;-79
2022/01/03 07:36:54;;;;;;;37.70;6.13;;;;;;;7.07;100.00;99950.06;5024063;28;19958;-81
2022/01/03 07:39:20;;;;;;;36.13;6.37;;;;;;;7.12;100.00;99953.13;5023768;28;20844;-80
2022/01/03 07:41:46;;;;;;;33.25;4.82;;;;;;;7.10;100.00;99950.59;5040045;28;20060;-80
2022/01/03 07:44:12;;;;;;;28.70;6.45;;;;;;;7.12;100.00;99947.81;5022898;28;20474;-80
2022/01/03 07:46:37;;;;;;;31.80;4.57;;;;;;;7.15;100.00;99947.47;5022883;28;20052;-80
2022/01/03 07:49:03;;;;;;;36.10;6.53;;;;;;;7.16;100.00;99942.03;5023539;28;20387;-80
2022/01/03 07:51:28;;;;;;;39.67;7.03;;;;;;;7.21;100.00;99944.19;5016958;28;20040;-81
2022/01/03 07:53:54;;;;;;;31.60;4.60;;;;;;;7.18;100.00;99939.19;5025008;28;20021;-81
2022/01/03 07:56:19;;;;;;;29.43;5.97;;;;;;;7.16;100.00;99939.34;5043566;28;20133;-80
2022/01/03 07:58:45;;;;;;;31.47;5.37;;;;;;;7.09;100.00;99911.75;5019045;28;20040;-80
2022/01/03 08:01:11;;;;;;;31.23;4.97;;;;;;;7.14;100.00;99928.06;5026199;28;20032;-80
2022/01/03 08:03:37;;;;;;;30.60;6.32;;;;;;;7.23;100.00;99936.03;5042262;28;20351;-81
2022/01/03 08:06:03;;;;;;;34.08;6.60;;;;;;;7.16;100.00;99933.19;5038796;28;20040;-79
2022/01/03 08:08:28;;;;;;;44.05;7.90;;;;;;;7.15;100.00;99928.88;5019118;28;20114;-80
2022/01/03 08:10:54;;;;;;;37.97;6.30;;;;;;;7.16;100.00;99899.53;5038934;28;20067;-79
2022/01/03 08:13:19;;;;;;;31.38;5.68;;;;;;;7.13;100.00;99907.81;5038647;28;20035;-79
2022/01/03 08:15:45;;;;;;;34.10;5.77;;;;;;;7.24;100.00;99929.75;5021654;28;20829;-79
2022/01/03 08:18:10;;;;;;;49.77;7.47;;;;;;;7.25;100.00;99942.03;5038213;28;20029;-79
2022/01/03 08:20:38;;;;;;;29.13;7.13;;;;;;;7.23;100.00;99944.00;5038330;28;20041;-79
2022/01/03 08:23:03;;;;;;;30.85;4.75;;;;;;;7.24;100.00;99933.25;5019266;28;20292;-80
2022/01/03 08:25:32;;;;;;;34.23;6.17;;;;;;;7.18;100.00;99921.41;5021902;28;20039;-79
2022/01/03 08:27:57;;;;;;;35.55;5.68;;;;;;;7.26;100.00;99938.38;5035223;28;20263;-79
2022/01/03 08:30:22;;;;;;;21.33;5.20;;;;;;;7.29;100.00;99938.06;5025621;28;20397;-80
2022/01/03 08:32:48;;;;;;;26.03;5.17;;;;;;;7.23;100.00;99925.44;5017632;28;20124;-79
2022/01/03 08:35:14;;;;;;;29.23;5.45;;;;;;;7.17;100.00;99925.09;5039107;28;20048;-80
2022/01/03 08:37:39;;;;;;;24.38;6.07;;;;;;;7.14;100.00;99928.06;5015912;28;20065;-79
2022/01/03 08:40:06;;;;;;;46.40;7.33;;;;;;;7.22;100.00;99939.72;5025201;28;20088;-79
2022/01/03 08:42:35;;;;;;;23.65;6.35;;;;;;;7.26;100.00;99954.31;5018410;28;20055;-79
2022/01/03 08:45:03;;;;;;;30.25;5.43;;;;;;;7.31;100.00;99957.34;5020103;28;20032;-78
2022/01/03 08:47:28;;;;;;;26.88;5.80;;;;;;;7.21;100.00;99930.06;5030132;28;20022;-79
2022/01/03 08:49:54;;;;;;;36.25;4.65;;;;;;;7.31;100.00;99936.09;5023020;28;20033;-80
2022/01/03 08:52:19;;;;;;;24.83;4.27;;;;;;;7.23;100.00;99938.69;5023921;28;20033;-79
2022/01/03 08:54:46;;;;;;;27.38;6.22;;;;;;;7.21;100.00;99925.59;5022944;28;20072;-80
2022/01/03 08:57:12;;;;;;;29.50;5.37;;;;;;;7.19;100.00;99931.06;5021128;28;20116;-80
2022/01/03 08:59:37;;;;;;;26.60;5.28;;;;;;;7.26;100.00;99941.88;5022872;28;20057;-79
2022/01/03 09:02:03;;;;;;;32.63;5.32;;;;;;;7.24;100.00;99935.91;5014844;28;20021;-80
2022/01/03 09:04:28;;;;;;;31.10;5.43;;;;;;;7.21;100.00;99924.75;5040878;28;20386;-79
2022/01/03 09:06:53;;;;;;;33.97;5.77;;;;;;;7.21;100.00;99924.75;5018618;28;20616;-79
2022/01/03 09:09:19;;;;;;;35.90;5.77;;;;;;;7.14;100.00;99922.75;5038404;28;20044;-79
2022/01/03 09:11:45;;;;;;;34.85;5.57;;;;;;;7.26;100.00;99939.22;5021388;28;20479;-80
2022/01/03 09:14:11;;;;;;;20.48;4.35;;;;;;;7.31;100.00;99930.78;5028229;28;20038;-78
2022/01/03 09:16:36;;;;;;;25.63;6.70;;;;;;;7.35;100.00;99934.75;5026638;28;20033;-79
2022/01/03 09:19:03;;;;;;;21.53;4.43;;;;;;;7.40;100.00;99940.44;5022223;28;20037;-79
2022/01/03 09:21:29;;;;;;;20.35;5.30;;;;;;;7.64;100.00;99960.91;5039947;28;20502;-80
2022/01/03 09:24:16;;;;;;;33.40;6.95;;;;;;;7.71;100.00;99955.78;5040441;28;20038;-79
2022/01/03 09:29:24;;;;;;;33.20;5.25;;;;;;;7.88;100.00;99938.03;5039015;28;20055;-80
2022/01/03 09:31:49;;;;;;;38.20;7.77;;;;;;;7.85;100.00;99928.56;5023223;28;20558;-79
2022/01/03 09:34:15;;;;;;;29.83;4.90;;;;;;;7.74;100.00;99924.38;5024867;28;20037;-80
2022/01/03 09:36:40;;;;;;;23.70;5.20;;;;;;;7.61;100.00;99900.97;5024081;28;20284;-80
2022/01/03 09:39:06;;;;;;;42.47;6.00;;;;;;;7.55;100.00;99890.97;5021160;28;20029;-81
2022/01/03 09:41:32;;;;;;;23.40;4.95;;;;;;;7.56;100.00;99907.75;5021541;28;20459;-79
2022/01/03 09:44:04;;;;;;;25.70;4.78;;;;;;;7.60;100.00;99917.88;5036877;28;20037;-80
2022/01/03 09:46:42;;;;;;;32.85;5.05;;;;;;;7.61;100.00;99919.56;5024765;28;20040;-79
2022/01/03 09:49:12;;;;;;;32.92;7.18;;;;;;;7.73;100.00;99924.56;5021025;28;20036;-79
2022/01/03 09:51:42;;;;;;;33.65;5.82;;;;;;;7.71;100.00;99907.94;5041563;28;20112;-79
2022/01/03 09:54:15;;;;;;;30.70;5.55;;;;;;;7.75;100.00;99910.13;5020185;28;20044;-80
2022/01/03 09:56:42;;;;;;;23.48;4.78;;;;;;;7.68;100.00;99897.63;5029074;28;20033;-80
2022/01/03 09:59:08;;;;;;;28.27;5.70;;;;;;;7.79;100.00;99902.63;5024411;28;20510;-80
2022/01/03 10:01:34;;;;;;;;;;;;;;;7.77;100.00;99904.63;5021080;28;20102;-79
2022/01/03 10:04:00;;;;;;;28.92;5.28;;;;;;;7.65;100.00;99895.31;5023131;28;20356;-79
2022/01/03 10:06:26;;;;;;;28.35;6.28;;;;;;;7.55;100.00;99892.81;5026298;28;20048;-79
2022/01/03 10:08:52;;;;;;;24.23;3.55;;;;;;;7.71;100.00;99905.28;5020083;28;20032;-79
2022/01/03 10:11:22;;;;;;;31.98;4.75;;;;;;;7.72;100.00;99896.31;5015734;28;20390;-79
2022/01/03 10:13:48;;;;;;;25.65;4.78;;;;;;;7.72;100.00;99899.81;5024411;28;20075;-79
2022/01/03 10:16:14;;;;;;;22.52;5.03;;;;;;;7.70;100.00;99903.63;5023779;28;20072;-80
2022/01/03 10:18:39;;;;;;;26.83;4.90;;;;;;;7.46;100.00;99886.66;5024975;28;20067;-81
2022/01/03 10:21:07;;;;;;;33.67;4.67;;;;;;;7.29;100.00;99884.97;5019147;28;20939;-78
2022/01/03 10:23:33;;;;;;;26.70;3.60;;;;;;;7.19;100.00;99901.03;5027590;28;20671;-78
2022/01/03 10:26:20;;;;;;;25.42;4.13;;;;;;;7.24;100.00;99924.44;5042645;28;20120;-78
2022/01/03 10:28:46;;;;;;;31.55;5.65;;;;;;;7.30;100.00;99935.22;5034596;28;20094;-80
2022/01/03 10:31:20;;;;;;;25.60;6.20;;;;;;;7.38;100.00;99937.09;5042720;28;20112;-78
2022/01/03 10:33:47;;;;;;;26.45;6.28;;;;;;;7.30;100.00;99929.09;5040799;28;20029;-78
2022/01/03 10:36:27;;;;;;;30.00;7.22;;;;;;;7.28;100.00;99944.34;5022580;28;20021;-78
2022/01/03 10:38:53;;;;;;;24.73;5.93;;;;;;;7.24;100.00;99935.06;5024846;28;20040;-78
2022/01/03 10:41:20;;;;;;;43.63;4.82;;;;;;;7.21;100.00;99943.34;5025629;28;20021;-78
2022/01/03 10:43:49;;;;;;;29.73;4.75;;;;;;;7.23;100.00;99959.94;5048434;28;20029;-78
2022/01/03 10:46:32;;;;;;;27.17;5.40;;;;;;;7.19;100.00;99944.34;5021237;28;20475;-78
2022/01/03 10:49:13;;;;;;;31.45;4.68;;;;;;;7.18;100.00;99949.78;5033679;28;20033;-78
2022/01/03 10:51:39;;;;;;;27.77;6.63;;;;;;;7.11;100.00;99944.28;5025089;28;20448;-78
2022/01/03 10:54:10;;;;;;;27.73;5.05;;;;;;;7.06;100.00;99941.28;5021923;28;20017;-78
2022/01/03 10:56:41;;;;;;;28.33;6.40;;;;;;;7.05;100.00;99939.66;5028976;28;20088;-78
2022/01/03 10:59:15;;;;;;;28.52;4.20;;;;;;;7.15;100.00;99950.13;5039236;28;20044;-78
2022/01/03 11:01:46;;;;;;;24.80;4.60;;;;;;;7.25;100.00;99964.09;5041994;28;20049;-78
2022/01/03 11:04:45;;;;;;;32.47;5.20;;;;;;;7.27;100.00;99946.19;5041605;28;20021;-78
2022/01/03 11:13:02;;;;;;;34.40;6.65;;;;;;;7.28;100.00;99931.94;5040505;28;20032;-78
2022/01/03 11:15:28;;;;;;;23.15;4.63;;;;;;;7.30;100.00;99923.78;5028838;28;20486;-79
2022/01/03 11:18:14;;;;;;;28.40;4.23;;;;;;;7.45;100.00;99946.09;5023281;28;20021;-79
2022/01/03 11:20:41;;;;;;;46.38;8.05;;;;;;;7.32;100.00;99912.00;5039634;28;20041;-79
2022/01/03 11:23:07;;;;;;;40.05;5.30;;;;;;;7.39;100.00;99915.69;5037848;28;20033;-80
2022/01/03 11:25:34;;;;;;;30.70;4.88;;;;;;;7.54;100.00;99929.19;5013967;28;20037;-80
2022/01/03 11:28:01;;;;;;;24.98;4.20;;;;;;;7.61;100.00;99921.41;5022104;28;20555;-79
2022/01/03 11:30:27;;;;;;;31.67;6.32;;;;;;;7.67;100.00;99911.94;5037359;28;20028;-79
2022/01/03 11:32:54;;;;;;;30.35;4.00;;;;;;;7.58;100.00;99917.22;5022333;28;20497;-79
2022/01/03 11:35:20;;;;;;;33.30;6.35;;;;;;;7.52;100.00;99896.63;5019274;28;20033;-80
2022/01/03 11:37:48;;;;;;;39.17;6.80;;;;;;;7.48;100.00;99905.91;5023465;28;20119;-79
2022/01/03 11:40:17;;;;;;;28.98;5.28;;;;;;;7.53;100.00;99890.31;5036850;28;20049;-79
2022/01/03 11:42:45;;;;;;;22.90;4.57;;;;;;;7.56;100.00;99897.97;5042510;28;20029;-78
2022/01/03 11:45:11;;;;;;;33.80;5.40;;;;;;;7.55;100.00;99901.59;5032180;28;20078;-79
2022/01/03 11:47:37;;;;;;;20.33;4.38;;;;;;;7.56;100.00;99900.63;5030520;28;20033;-79
2022/01/03 11:50:07;;;;;;;32.13;6.35;;;;;;;7.42;100.00;99895.94;5045615;28;20040;-79